• Join FlightAware (Why Join?)
  • Login
  • US Flag 
11:32PM EDT


 

Airport Tracker/Info


-or-


 

Live Flight TrackerFlight Track Log ✈ ASQ5958 ✈ 01-May-2013 ✈ KSYR - KORD

Flight Track Log - Related Links

Times and Time Zones

All times are in EDT time to prevent confusion due to time zone crossing. See the ASQ5958 flight status page for this flight to view local times or setup timezone preferences in your user account.

Time Position Orientation Groundspeed Altitude Reporting Facility
EDT Latitude Longitude Course Direction KTS MPH feet Rate Location/Type
12:46PM 43.1089 -76.0892 78° East 137 158 1,200  Level Boston Center
12:47PM 43.1169 -76.0386 78° East 197 227 2,700 2,640 Climbing Boston Center
12:48PM 43.1747 -76.0533 349° North 255 293 5,800 2,700 Climbing Boston Center
12:49PM 43.1736 -76.2044 269° West 263 303 9,600 2,160 Climbing Cleveland Center
12:50PM 43.1653 -76.3217 264° West 286 329 11,400 1,740 Climbing Cleveland Center
12:51PM 43.1639 -76.4528 269° West 326 375 13,100 1,740 Climbing Cleveland Center
12:52PM 43.1667 -76.5922 272° West 355 409 14,900 1,680 Climbing Cleveland Center
12:53PM 43.1647 -76.7203 269° West 373 429 16,500 1,440 Climbing Cleveland Center
12:54PM 43.1656 -76.8683 270° West 386 444 17,800 1,380 Climbing Cleveland Center
12:55PM 43.1661 -77.0164 270° West 386 444 19,300 1,500 Climbing Cleveland Center
12:56PM 43.1664 -77.1675 270° West 391 450 20,800 1,500 Climbing Cleveland Center
12:57PM 43.1647 -77.3239 269° West 406 467 22,300 1,500 Climbing Cleveland Center
12:58PM 43.1647 -77.4778 270° West 411 473 23,900 1,500 Climbing Cleveland Center
12:59PM 43.1647 -77.6344 270° West 411 473 25,400 1,500 Climbing Cleveland Center
01:00PM 43.1622 -77.7911 269° West 411 473 26,900 1,500 Climbing Cleveland Center
01:01PM 43.1617 -77.9419 270° West 411 473 28,400 1,500 Climbing Cleveland Center
01:02PM 43.1608 -78.0956 270° West 406 467 29,900 1,620 Climbing Cleveland Center
01:03PM 43.1603 -78.2636 270° West 406 467 31,700 1,560 Climbing Cleveland Center
01:04PM 43.1567 -78.4117 268° West 406 467 33,100 1,320 Climbing Cleveland Center
01:05PM 43.1575 -78.5625 270° West 406 467 34,400 1,260 Climbing Cleveland Center
01:06PM 43.1536 -78.7108 268° West 401 461 35,700 780 Climbing Cleveland Center
01:07PM 43.1539 -78.8617 270° West 401 461 36,000 120 Climbing Cleveland Center
01:08PM 43.1333 -79.0000 259° West 410 472 36,000  Level Toronto Center
01:09PM 43.1333 -79.1833 270° West 440 506 36,000  Level Toronto Center
01:10PM 43.1333 -79.3333 270° West 450 518 36,000  Level Toronto Center
01:11PM 43.1333 -79.5167 270° West 450 518 36,000  Level Toronto Center
01:12PM 43.1167 -79.6833 262° West 440 506 36,000  Level Toronto Center
01:13PM 43.1167 -79.8333 270° West 440 506 36,000  Level Toronto Center
01:14PM 43.1167 -80.0167 270° West 440 506 36,000  Level Toronto Center
01:15PM 43.1167 -80.1833 270° West 450 518 36,000  Level Toronto Center
01:16PM 43.1167 -80.3667 270° West 450 518 36,000  Level Toronto Center
01:17PM 43.1000 -80.5167 261° West 460 529 36,000  Level Toronto Center
01:18PM 43.1000 -80.7000 270° West 450 518 36,000  Level Toronto Center
01:19PM 43.0833 -80.8833 263° West 450 518 36,000  Level Toronto Center
01:20PM 43.0833 -81.0500 270° West 450 518 36,000  Level Toronto Center
01:21PM 43.0667 -81.2333 263° West 450 518 36,000  Level Toronto Center
01:22PM 43.0667 -81.3833 270° West 450 518 36,000  Level Toronto Center
01:23PM 43.0667 -81.5667 270° West 450 518 36,000  Level Toronto Center
01:24PM 43.0667 -81.7333 270° West 450 518 36,000  Level Toronto Center
01:25PM 43.0333 -81.9167 256° West 450 518 36,000  Level Toronto Center
01:26PM 43.0333 -82.0667 270° West 450 518 36,000  Level Toronto Center
01:27PM 43.0333 -82.2333 270° West 450 518 36,000  Level Toronto Center
01:28PM 43.0333 -82.4167 270° West 450 518 36,000  Level Toronto Center
01:29PM 43.0167 -82.5667 261° West 450 518 36,000  Level Toronto Center
01:30PM 43.0247 -82.6819 275° West 458 527 36,000  Level Cleveland Center
01:31PM 43.0153 -82.8519 266° West 458 527 36,000  Level Cleveland Center
01:32PM 43.0075 -83.0247 267° West 458 527 36,000  Level Cleveland Center
01:33PM 42.9975 -83.1919 265° West 458 527 36,000  Level Cleveland Center
01:34PM 42.9894 -83.3647 266° West 458 527 36,000  Level Cleveland Center
01:35PM 42.9789 -83.5317 265° West 458 527 36,000  Level Cleveland Center
01:36PM 42.9681 -83.7044 265° West 458 527 36,000  Level Cleveland Center
01:37PM 42.9550 -83.8739 264° West 458 527 36,000  Level Cleveland Center
01:38PM 42.9378 -84.0403 262° West 458 527 36,000 -300 Level Cleveland Center
01:39PM 42.9194 -84.2267 262° West 464 534 35,400 -960 Descending Cleveland Center
01:40PM 42.9044 -84.3731 262° West 448 516 34,200 -1,500 Descending Cleveland Center
01:40PM 42.8983 -84.4378 263° West 438 504 33,300 -1,560 Descending Chicago Center
01:41PM 42.8822 -84.5953 262° West 424 488 32,000 -660 Descending Chicago Center
01:42PM 42.8664 -84.7447 262° West 407 468 32,000  Level Chicago Center
01:43PM 42.8469 -84.9342 262° West 417 480 32,000  Level Chicago Center
01:44PM 42.8294 -85.0989 262° West 433 498 32,000  Level Chicago Center
01:45PM 42.8119 -85.2678 262° West 445 512 32,000  Level Chicago Center
01:46PM 42.7931 -85.4372 261° West 450 518 32,000 -1,200 Level Chicago Center
01:48PM 42.7672 -85.6058 258° West 455 524 29,600 -2,520 Descending Chicago Center
01:49PM 42.7372 -85.7725 256° West 451 519 26,800 -2,700 Descending Chicago Center
01:50PM 42.7072 -85.9358 256° West 444 511 24,100 -2,340 Descending Chicago Center
01:51PM 42.6767 -86.1033 256° West 450 518 22,000 -2,040 Descending Chicago Center
01:52PM 42.6414 -86.2989 256° West 444 511 20,000 -1,380 Descending Chicago Center
01:53PM 42.6131 -86.4456 255° West 407 468 19,200 -1,260 Descending Chicago Center
01:54PM 42.5847 -86.5944 256° West 408 470 17,400 -1,740 Descending Chicago Center
01:55PM 42.5586 -86.7364 256° West 393 452 15,700 -1,680 Descending Chicago Center
01:56PM 42.5217 -86.8681 249° West 376 433 14,000 -1,620 Descending Chicago Center
01:57PM 42.4881 -86.9958 250° West 365 420 12,400 -1,620 Descending Chicago Center
01:58PM 42.4525 -87.1200 249° West 357 411 10,700 -1,380 Descending Chicago Center
01:59PM 42.4183 -87.2472 250° West 294 338 9,600 -840 Descending Chicago Center
02:00PM 42.3586 -87.2786 201° Southwest 247 284 9,000 -540 Descending Chicago Center
02:01PM 42.2867 -87.2806 181° South 246 283 8,600 -780 Descending Chicago Center
02:02PM 42.2175 -87.2711 174° South 250 288 7,500 -840 Descending Chicago Center
02:03PM 42.1464 -87.2669 178° South 255 293 6,900 -300 Descending Chicago Center
02:04PM 42.0764 -87.2625 177° South 253 291 6,900 -120 Level Chicago Center
02:05PM 42.0408 -87.3508 242° Southwest 273 314 6,700 -420 Descending Chicago Center
02:06PM 42.0000 -87.4333 236° Southwest 257 296 6,200 -420 Descending Chicago TRACON
02:07PM 41.9833 -87.5167 255° West 249 287 6,000 -540 Descending Chicago TRACON
02:08PM 41.9833 -87.6000 270° West 245 282 5,200 -1,320 Descending Chicago TRACON
02:09PM 41.9833 -87.6833 270° West 230 265 3,600 -1,500 Descending Chicago TRACON
02:10PM 41.9833 -87.7667 270° West 221 254 2,400 -1,140 Descending Chicago TRACON
02:11PM 41.9833 -87.8333 270° West 170 196 1,400 -1,020 Descending Chicago TRACON
02:13PM 41.9667 -87.9000 263° West  Level FlightAware Approximate
02:20PM 41.9817 -87.9067 263° West  Level Estimated